createdAt,value
2023-04-11T00:04:55.040Z,84.90
2023-04-11T00:09:59.257Z,85.66
2023-04-11T00:15:05.686Z,84.86
2023-04-11T00:20:12.931Z,85.69
2023-04-11T00:25:17.070Z,85.81
2023-04-11T00:30:22.874Z,85.81
2023-04-11T00:35:27.722Z,84.72
2023-04-11T00:40:32.055Z,82.28
2023-04-11T00:45:38.195Z,81.01
2023-04-11T00:50:43.767Z,80.26
2023-04-11T00:55:48.070Z,79.07
2023-04-11T01:00:55.460Z,79.39
2023-04-11T01:05:59.502Z,83.15
2023-04-11T01:11:04.250Z,83.50
2023-04-11T01:16:11.278Z,85.34
2023-04-11T01:21:16.967Z,84.24
2023-04-11T01:26:22.573Z,83.80
2023-04-11T01:31:27.354Z,82.73
2023-04-11T01:36:32.940Z,80.95
2023-04-11T01:41:39.258Z,78.68
2023-04-11T01:46:44.419Z,79.50
2023-04-11T01:51:48.672Z,82.28
2023-04-11T01:56:55.057Z,79.91
2023-04-11T02:01:59.329Z,79.50
2023-04-11T02:07:03.447Z,81.85
2023-04-11T02:12:10.661Z,83.21
2023-04-11T02:17:15.037Z,81.81
2023-04-11T02:22:19.279Z,81.25
2023-04-11T02:27:25.244Z,83.26
2023-04-11T02:32:31.732Z,84.43
2023-04-11T02:37:36.026Z,83.83
2023-04-11T02:42:43.706Z,84.32
2023-04-11T02:47:50.852Z,83.35
2023-04-11T02:52:55.324Z,83.10
2023-04-11T02:58:04.689Z,82.98
2023-04-11T03:03:08.902Z,81.24
2023-04-11T03:08:17.992Z,80.82
2023-04-11T03:13:29.172Z,75.58
2023-04-11T03:18:33.250Z,76.52
2023-04-11T03:23:41.651Z,78.25
2023-04-11T03:28:47.270Z,77.81
2023-04-11T03:33:55.965Z,78.65
2023-04-11T03:39:00.616Z,79.39
2023-04-11T03:44:06.463Z,78.67
2023-04-11T03:49:10.886Z,80.08
2023-04-11T03:54:15.860Z,80.29
2023-04-11T03:59:21.824Z,80.01
2023-04-11T04:04:32.539Z,79.59
2023-04-11T04:09:47.006Z,80.77
2023-04-11T04:14:53.870Z,81.66
2023-04-11T04:19:58.300Z,81.91
2023-04-11T04:25:03.642Z,83.91
2023-04-11T04:30:15.936Z,85.17
2023-04-11T04:35:36.131Z,84.91
2023-04-11T04:40:42.363Z,81.62
2023-04-11T04:45:50.032Z,79.49
2023-04-11T04:51:00.483Z,80.87
2023-04-11T04:56:05.233Z,80.71
2023-04-11T05:01:16.763Z,81.07
2023-04-11T05:06:22.103Z,80.31
2023-04-11T05:11:27.543Z,79.29
2023-04-11T05:16:33.723Z,78.47
2023-04-11T05:21:39.990Z,78.68
2023-04-11T05:26:44.682Z,77.36
2023-04-11T05:31:56.053Z,77.63
2023-04-11T05:37:01.423Z,76.42
2023-04-11T05:42:07.965Z,74.88
2023-04-11T05:47:13.613Z,74.27
2023-04-11T05:52:17.673Z,74.77
2023-04-11T05:57:22.072Z,75.53
2023-04-11T06:02:28.048Z,75.17
2023-04-11T06:07:32.706Z,74.78
2023-04-11T06:12:37.397Z,74.16
2023-04-11T06:17:42.931Z,74.01
2023-04-11T06:22:54.415Z,73.99
2023-04-11T06:27:58.681Z,73.66
2023-04-11T06:33:04.765Z,72.74
2023-04-11T06:38:12.409Z,72.48
2023-04-11T06:43:16.535Z,72.13
2023-04-11T06:48:22.324Z,72.20
2023-04-11T06:53:27.133Z,72.12
2023-04-11T06:58:32.115Z,71.75
2023-04-11T07:03:38.167Z,72.47
2023-04-11T07:08:43.752Z,70.99
2023-04-11T07:13:47.882Z,72.10
2023-04-11T07:18:53.435Z,72.16
2023-04-11T07:23:57.596Z,72.03
2023-04-11T07:29:01.725Z,72.53
2023-04-11T07:34:07.540Z,71.65
2023-04-11T07:39:13.812Z,71.32
2023-04-11T07:44:18.326Z,72.00
2023-04-11T07:49:24.029Z,72.44
2023-04-11T07:54:28.608Z,72.02
2023-04-11T07:59:32.845Z,71.44
2023-04-11T08:04:39.212Z,71.33
2023-04-11T08:09:43.704Z,71.38
2023-04-11T08:14:48.029Z,72.75
2023-04-11T08:19:53.875Z,72.34
2023-04-11T08:24:58.438Z,72.53
2023-04-11T08:30:02.983Z,71.91
2023-04-11T08:35:09.598Z,71.25
2023-04-11T08:40:16.491Z,69.45
2023-04-11T08:45:20.621Z,68.56
2023-04-11T08:50:26.918Z,67.36
2023-04-11T08:55:31.548Z,67.13
2023-04-11T09:00:36.455Z,64.01
2023-04-11T09:05:45.563Z,63.57
2023-04-11T09:10:49.839Z,62.35
2023-04-11T09:16:11.513Z,60.59
2023-04-11T09:21:18.343Z,60.98
2023-04-11T09:26:28.856Z,60.27
2023-04-11T09:31:43.511Z,58.00
2023-04-11T09:36:55.935Z,58.25
2023-04-11T09:42:03.334Z,58.52
2023-04-11T09:47:07.830Z,59.27
2023-04-11T09:52:14.578Z,58.23
2023-04-11T09:57:25.206Z,56.39
2023-04-11T10:02:30.507Z,55.75
2023-04-11T10:07:40.640Z,57.00
2023-04-11T10:12:45.586Z,56.63
2023-04-11T10:18:09.207Z,54.59
2023-04-11T10:23:16.665Z,54.66
2023-04-11T10:28:35.847Z,54.93
2023-04-11T10:33:41.658Z,53.94
2023-04-11T10:38:52.730Z,53.29
2023-04-11T10:44:21.173Z,50.86
2023-04-11T10:49:36.694Z,48.92
2023-04-11T10:54:43.027Z,50.30
2023-04-11T11:00:00.671Z,51.20
2023-04-11T11:05:20.604Z,51.31
2023-04-11T11:10:38.754Z,52.73
2023-04-11T11:15:50.773Z,51.36
2023-04-11T11:20:57.692Z,50.46
2023-04-11T11:26:03.317Z,49.97
2023-04-11T11:31:07.952Z,47.87
2023-04-11T11:36:13.696Z,48.73
2023-04-11T11:41:19.510Z,47.69
2023-04-11T11:46:24.003Z,48.04
2023-04-11T11:51:28.469Z,47.26
2023-04-11T11:56:34.061Z,48.27
2023-04-11T12:01:40.456Z,49.77
2023-04-11T12:06:46.080Z,48.31
2023-04-11T12:11:59.436Z,47.26
2023-04-11T12:17:05.401Z,47.61
2023-04-11T12:22:11.513Z,47.06
2023-04-11T12:27:17.116Z,47.75
2023-04-11T12:32:21.274Z,47.07
2023-04-11T12:37:25.424Z,46.20
2023-04-11T12:47:37.601Z,44.29
2023-04-11T12:52:41.988Z,43.48
2023-04-11T12:57:47.933Z,42.02
2023-04-11T13:02:53.553Z,42.52
2023-04-11T13:07:58.536Z,42.24
2023-04-11T13:13:15.409Z,40.19
2023-04-11T13:18:21.984Z,41.00
2023-04-11T13:23:27.637Z,41.14
2023-04-11T13:28:35.020Z,41.48
2023-04-11T13:33:40.791Z,42.19
2023-04-11T13:38:47.193Z,43.11
2023-04-11T13:43:53.671Z,42.87
2023-04-11T13:48:58.033Z,40.87
2023-04-11T13:54:02.394Z,41.83
2023-04-11T13:59:07.870Z,42.35
2023-04-11T14:04:13.625Z,41.23
2023-04-11T14:09:17.725Z,42.35
2023-04-11T14:14:23.134Z,42.55
2023-04-11T14:19:27.272Z,43.11
2023-04-11T14:24:31.812Z,42.96
2023-04-11T14:29:37.929Z,41.25
2023-04-11T14:34:42.995Z,41.53
2023-04-11T14:39:47.834Z,41.20
2023-04-11T14:44:53.743Z,41.96
2023-04-11T14:49:58.779Z,42.96
2023-04-11T14:55:03.154Z,42.66
2023-04-11T15:00:15.569Z,42.53
2023-04-11T15:05:21.112Z,43.64
2023-04-11T15:10:27.630Z,44.60
2023-04-11T15:15:33.881Z,43.71
2023-04-11T15:20:38.857Z,42.83
2023-04-11T15:25:43.023Z,44.04
2023-04-11T15:30:49.747Z,43.62
2023-04-11T15:35:59.112Z,44.19
2023-04-11T15:41:04.628Z,42.78
2023-04-11T15:46:10.930Z,41.52
2023-04-11T15:51:15.054Z,42.99
2023-04-11T15:56:20.132Z,43.89
2023-04-11T16:01:30.082Z,43.92
2023-04-11T16:06:34.232Z,44.33
2023-04-11T16:11:40.460Z,43.82
2023-04-11T16:16:50.775Z,45.00
2023-04-11T16:21:55.241Z,45.56
2023-04-11T16:27:00.035Z,46.46
2023-04-11T16:32:06.062Z,46.56
2023-04-11T16:37:10.315Z,46.80
2023-04-11T16:42:14.540Z,47.04
2023-04-11T16:47:20.669Z,47.33
2023-04-11T16:52:25.239Z,46.90
2023-04-11T16:57:29.353Z,47.76
2023-04-11T17:02:35.716Z,48.25
2023-04-11T17:07:42.273Z,48.30
2023-04-11T17:12:46.565Z,48.43
2023-04-11T17:17:54.916Z,48.35
2023-04-11T17:22:59.790Z,48.23
2023-04-11T17:28:05.867Z,49.70
2023-04-11T17:33:11.652Z,50.45
2023-04-11T17:38:18.013Z,50.57
2023-04-11T17:43:22.888Z,51.75
2023-04-11T17:48:29.028Z,51.23
2023-04-11T17:53:34.171Z,52.03
2023-04-11T17:58:42.568Z,52.47
2023-04-11T18:03:50.583Z,52.34
2023-04-11T18:08:55.015Z,52.65
2023-04-11T18:13:59.449Z,52.57
2023-04-11T18:19:05.766Z,52.75
2023-04-11T18:24:10.065Z,52.51
2023-04-11T18:29:14.699Z,52.50
2023-04-11T18:34:23.797Z,53.78
2023-04-11T18:39:29.403Z,53.53
2023-04-11T18:44:34.367Z,53.65
2023-04-11T18:49:41.136Z,53.30
2023-04-11T18:54:45.733Z,53.30
2023-04-11T18:59:51.732Z,55.71
2023-04-11T19:04:59.764Z,55.67
2023-04-11T19:10:03.859Z,55.72
2023-04-11T19:15:09.347Z,55.66
2023-04-11T19:20:16.797Z,55.10
2023-04-11T19:25:21.808Z,53.77
2023-04-11T19:30:26.279Z,54.34
2023-04-11T19:35:31.839Z,54.32
2023-04-11T19:40:36.200Z,54.46
2023-04-11T19:45:40.511Z,54.60
2023-04-11T19:50:46.302Z,54.41
2023-04-11T19:55:52.329Z,54.84
2023-04-11T20:00:56.709Z,55.38
2023-04-11T20:06:05.671Z,55.41
2023-04-11T20:11:09.919Z,55.95
2023-04-11T20:16:15.093Z,55.42
2023-04-11T20:21:20.630Z,55.96
2023-04-11T20:26:24.980Z,56.18
2023-04-11T20:31:29.189Z,56.60
2023-04-11T20:36:36.188Z,56.23
2023-04-11T20:41:42.006Z,56.48
2023-04-11T20:46:46.462Z,57.02
2023-04-11T20:51:54.629Z,57.17
2023-04-11T20:56:59.065Z,57.29
2023-04-11T21:02:04.157Z,57.60
2023-04-11T21:07:11.043Z,57.69
2023-04-11T21:12:15.747Z,57.86
2023-04-11T21:17:22.202Z,57.62
2023-04-11T21:22:30.193Z,57.71
2023-04-11T21:27:34.276Z,57.90
2023-04-11T21:32:41.004Z,57.94
2023-04-11T21:37:48.889Z,58.00
2023-04-11T21:42:53.331Z,58.77
2023-04-11T21:47:58.404Z,58.67
2023-04-11T21:53:04.242Z,59.19
2023-04-11T21:58:13.279Z,59.02
2023-04-11T22:03:28.999Z,59.36
2023-04-11T22:08:38.352Z,59.65
2023-04-11T22:13:46.716Z,60.26
2023-04-11T22:18:54.669Z,60.01
2023-04-11T22:24:02.484Z,59.98
2023-04-11T22:29:07.986Z,60.25
2023-04-11T22:34:12.268Z,60.62
2023-04-11T22:39:17.698Z,60.82
2023-04-11T22:44:22.018Z,61.03
2023-04-11T22:49:26.119Z,60.45
2023-04-11T22:54:31.715Z,61.03
2023-04-11T22:59:35.815Z,60.84
2023-04-11T23:04:40.443Z,60.64
2023-04-11T23:09:47.512Z,60.85
2023-04-11T23:14:53.256Z,61.25
2023-04-11T23:19:59.621Z,61.06
2023-04-11T23:25:06.993Z,61.23
2023-04-11T23:30:12.871Z,60.89
2023-04-11T23:35:19.462Z,61.00
2023-04-11T23:40:26.276Z,62.19
2023-04-11T23:45:30.902Z,62.29
2023-04-11T23:50:34.917Z,61.89
2023-04-11T23:55:41.870Z,62.80
